createdAt,value
2023-05-19T00:02:22.376Z,102891.28
2023-05-19T00:04:49.638Z,102944.13
2023-05-19T00:07:18.833Z,103000.66
2023-05-19T00:09:45.669Z,102974.47
2023-05-19T00:12:13.117Z,102911.09
2023-05-19T00:14:40.202Z,102835.00
2023-05-19T00:17:07.166Z,102752.63
2023-05-19T00:19:33.679Z,102810.59
2023-05-19T00:22:00.420Z,102729.84
2023-05-19T00:24:26.965Z,102699.56
2023-05-19T00:26:53.709Z,102767.56
2023-05-19T00:29:20.269Z,102696.88
2023-05-19T00:31:46.855Z,102629.84
2023-05-19T00:34:13.586Z,102596.72
2023-05-19T00:36:40.209Z,102677.22
2023-05-19T00:39:06.861Z,102622.34
2023-05-19T00:41:33.406Z,102708.72
2023-05-19T00:44:00.046Z,102740.22
2023-05-19T00:46:26.747Z,102659.00
2023-05-19T00:48:53.434Z,102682.56
2023-05-19T00:51:20.231Z,102679.31
2023-05-19T00:53:48.628Z,102696.56
2023-05-19T00:56:16.288Z,102608.25
2023-05-19T00:58:43.481Z,102504.31
2023-05-19T01:01:10.022Z,102560.84
2023-05-19T01:03:37.382Z,102599.56
2023-05-19T01:06:04.900Z,102592.03
2023-05-19T01:08:37.034Z,102551.41
2023-05-19T01:11:08.128Z,102497.03
2023-05-19T01:13:36.627Z,102490.75
2023-05-19T01:16:31.917Z,102438.75
2023-05-19T01:19:23.599Z,102429.16
2023-05-19T01:22:14.821Z,102427.22
2023-05-19T01:24:56.720Z,102382.53
2023-05-19T01:28:10.178Z,102361.03
2023-05-19T01:30:44.881Z,102303.81
2023-05-19T01:33:13.985Z,102278.63
2023-05-19T01:35:42.656Z,102345.41
2023-05-19T01:38:11.993Z,102306.97
2023-05-19T01:40:41.174Z,102487.03
2023-05-19T01:43:10.562Z,102500.84
2023-05-19T01:45:37.604Z,102521.00
2023-05-19T01:48:05.033Z,102477.47
2023-05-19T01:50:32.500Z,102519.50
2023-05-19T01:53:00.634Z,102208.88
2023-05-19T01:55:27.987Z,101917.00
2023-05-19T01:58:47.313Z,101969.25
2023-05-19T02:01:26.835Z,102372.50
2023-05-19T02:04:15.148Z,102268.50
2023-05-19T02:06:55.603Z,102294.78
2023-05-19T02:09:47.095Z,102297.09
2023-05-19T02:12:20.284Z,102285.66
2023-05-19T02:14:56.080Z,102281.47
2023-05-19T02:17:26.637Z,102238.31
2023-05-19T02:19:53.550Z,102244.84
2023-05-19T02:22:20.555Z,102245.13
2023-05-19T02:24:47.482Z,102237.84
2023-05-19T02:27:14.263Z,102157.00
2023-05-19T02:29:40.859Z,102179.25
2023-05-19T02:32:07.889Z,102162.31
2023-05-19T02:34:34.604Z,102189.63
2023-05-19T02:37:10.314Z,102163.22
2023-05-19T02:39:37.384Z,102103.66
2023-05-19T02:42:04.392Z,102010.31
2023-05-19T02:44:32.053Z,102084.88
2023-05-19T02:46:59.313Z,102018.66
2023-05-19T02:49:26.281Z,102078.00
2023-05-19T02:51:53.091Z,101943.38
2023-05-19T02:54:19.709Z,101965.19
2023-05-19T02:56:46.716Z,101895.25
2023-05-19T02:59:13.528Z,101821.50
2023-05-19T03:01:40.998Z,101843.59
2023-05-19T03:04:07.923Z,101832.69
2023-05-19T03:06:34.961Z,101859.16
2023-05-19T03:09:01.794Z,101758.13
2023-05-19T03:11:28.719Z,101944.16
2023-05-19T03:13:55.699Z,102227.22
2023-05-19T03:16:22.628Z,102092.16
2023-05-19T03:18:49.345Z,102170.84
2023-05-19T03:21:16.481Z,102149.22
2023-05-19T03:23:43.310Z,101814.56
2023-05-19T03:26:11.299Z,102062.69
2023-05-19T03:28:38.028Z,102137.66
2023-05-19T03:31:04.825Z,102167.00
2023-05-19T03:33:31.659Z,102617.41
2023-05-19T03:35:58.332Z,102731.13
2023-05-19T03:38:27.271Z,102798.00
2023-05-19T03:40:54.034Z,102972.41
2023-05-19T03:43:20.552Z,102972.91
2023-05-19T03:45:48.421Z,103095.59
2023-05-19T03:48:15.117Z,103209.13
2023-05-19T03:50:42.532Z,103186.78
2023-05-19T03:53:09.075Z,103101.69
2023-05-19T03:55:35.913Z,103198.84
2023-05-19T03:58:02.915Z,103519.63
2023-05-19T04:00:30.594Z,103559.69
2023-05-19T04:02:57.871Z,103677.44
2023-05-19T04:05:24.781Z,103729.97
2023-05-19T04:07:51.276Z,103745.81
2023-05-19T04:10:18.822Z,103728.53
2023-05-19T04:12:45.479Z,103737.09
2023-05-19T04:15:12.209Z,103914.91
2023-05-19T04:17:39.660Z,103938.63
2023-05-19T04:20:07.134Z,103976.72
2023-05-19T04:22:33.930Z,103923.28
2023-05-19T04:25:00.836Z,104014.75
2023-05-19T04:27:27.624Z,104059.09
2023-05-19T04:29:54.294Z,104094.66
2023-05-19T04:32:21.142Z,104060.13
2023-05-19T04:34:47.690Z,104109.75
2023-05-19T04:37:14.543Z,104088.53
2023-05-19T04:39:41.739Z,104077.81
2023-05-19T04:42:10.194Z,104099.34
2023-05-19T04:44:36.767Z,104111.13
2023-05-19T04:47:04.074Z,104072.00
2023-05-19T04:49:30.888Z,104035.44
2023-05-19T04:51:58.008Z,104068.44
2023-05-19T04:54:24.592Z,104072.59
2023-05-19T04:56:51.308Z,104065.00
2023-05-19T04:59:17.813Z,104053.25
2023-05-19T05:01:44.435Z,104071.13
2023-05-19T05:04:11.789Z,104054.47
2023-05-19T05:06:38.841Z,104047.06
2023-05-19T05:09:05.809Z,104068.19
2023-05-19T05:11:33.104Z,104077.97
2023-05-19T05:14:00.199Z,104105.47
2023-05-19T05:16:28.757Z,104093.47
2023-05-19T05:18:56.232Z,104140.66
2023-05-19T05:21:23.609Z,104167.34
2023-05-19T05:23:51.491Z,104208.44
2023-05-19T05:26:19.474Z,104237.53
2023-05-19T05:28:46.106Z,104269.94
2023-05-19T05:31:14.076Z,104274.94
2023-05-19T05:33:41.129Z,104266.28
2023-05-19T05:36:08.231Z,104289.31
2023-05-19T05:38:35.074Z,104243.69
2023-05-19T05:41:02.670Z,104276.06
2023-05-19T05:43:30.537Z,104293.75
2023-05-19T05:45:58.013Z,104317.22
2023-05-19T05:48:25.569Z,104323.88
2023-05-19T05:50:52.886Z,104376.97
2023-05-19T05:53:20.791Z,104378.00
2023-05-19T05:55:48.009Z,104460.16
2023-05-19T05:58:15.213Z,104535.63
2023-05-19T06:00:43.256Z,104532.28
2023-05-19T06:03:10.614Z,104546.88
2023-05-19T06:05:38.707Z,104644.81
2023-05-19T06:08:06.024Z,104848.03
2023-05-19T06:10:33.282Z,104842.34
2023-05-19T06:13:00.867Z,105028.44
2023-05-19T06:15:27.916Z,105346.63
2023-05-19T06:17:54.722Z,105805.34
2023-05-19T06:20:21.639Z,105971.97
2023-05-19T06:22:48.436Z,106089.59
2023-05-19T06:25:16.069Z,106362.19
2023-05-19T06:27:43.125Z,106165.91
2023-05-19T06:30:09.982Z,106294.97
2023-05-19T06:32:36.695Z,106482.47
2023-05-19T06:35:03.536Z,106551.63
2023-05-19T06:37:30.870Z,106927.31
2023-05-19T06:39:57.950Z,106864.13
2023-05-19T06:42:26.780Z,106964.69
2023-05-19T06:44:53.788Z,106624.22
2023-05-19T06:47:20.656Z,106460.47
2023-05-19T06:49:48.385Z,106909.03
2023-05-19T06:52:15.037Z,107255.59
2023-05-19T06:54:41.775Z,107468.09
2023-05-19T06:57:08.480Z,107528.34
2023-05-19T06:59:34.938Z,107581.34
2023-05-19T07:02:01.641Z,107807.38
2023-05-19T07:04:28.354Z,107759.88
2023-05-19T07:06:55.082Z,107634.69
2023-05-19T07:09:21.692Z,107233.44
2023-05-19T07:11:49.565Z,107068.91
2023-05-19T07:14:16.197Z,107181.31
2023-05-19T07:16:43.802Z,106928.34
2023-05-19T07:19:10.786Z,107026.97
2023-05-19T07:21:37.430Z,106841.00
2023-05-19T07:24:04.598Z,106809.41
2023-05-19T07:26:32.020Z,106484.28
2023-05-19T07:28:58.771Z,106817.63
2023-05-19T07:31:25.417Z,106949.31
2023-05-19T07:33:54.368Z,107217.50
2023-05-19T07:36:21.680Z,107312.41
2023-05-19T07:38:48.696Z,107440.09
2023-05-19T07:41:15.453Z,107555.44
2023-05-19T07:43:43.183Z,107547.59
2023-05-19T07:46:09.851Z,107727.56
2023-05-19T07:48:37.449Z,108119.53
2023-05-19T07:51:04.183Z,108229.66
2023-05-19T07:53:31.091Z,108221.69
2023-05-19T07:55:58.836Z,108024.06
2023-05-19T07:58:25.664Z,108008.03
2023-05-19T08:00:52.304Z,107274.56
2023-05-19T08:03:19.156Z,107982.47
2023-05-19T08:05:45.829Z,107739.88
2023-05-19T08:08:12.420Z,107853.56
2023-05-19T08:10:39.193Z,108200.34
2023-05-19T08:13:05.716Z,108342.34
2023-05-19T08:15:32.957Z,106885.75
2023-05-19T08:17:59.979Z,108139.09
2023-05-19T08:20:26.800Z,108339.06
2023-05-19T08:22:53.570Z,107665.69
2023-05-19T08:25:20.409Z,108190.75
2023-05-19T08:27:47.875Z,108154.22
2023-05-19T08:30:14.601Z,108679.38
2023-05-19T08:32:41.966Z,108547.94
2023-05-19T08:35:09.429Z,108684.06
2023-05-19T08:37:36.309Z,108765.16
2023-05-19T08:40:03.227Z,107420.09
2023-05-19T08:42:30.272Z,108299.56
2023-05-19T08:44:57.052Z,108640.31
2023-05-19T08:47:24.095Z,109191.34
2023-05-19T08:49:55.728Z,108714.44
2023-05-19T08:52:52.852Z,107888.72
2023-05-19T08:55:22.692Z,108911.56
2023-05-19T08:57:49.856Z,108963.56
2023-05-19T09:00:17.714Z,108582.25
2023-05-19T09:02:55.163Z,109086.19
2023-05-19T09:05:28.419Z,108554.59
2023-05-19T09:07:55.727Z,107462.22
2023-05-19T09:10:22.468Z,108185.72
2023-05-19T09:12:49.496Z,108309.50
2023-05-19T09:15:17.586Z,109371.78
2023-05-19T09:17:45.945Z,109141.94
2023-05-19T09:20:12.936Z,109183.97
2023-05-19T09:22:46.273Z,109440.13
2023-05-19T09:25:25.940Z,109208.84
2023-05-19T09:27:55.192Z,108430.56
2023-05-19T09:30:21.968Z,107483.06
2023-05-19T09:32:48.683Z,107800.50
2023-05-19T09:35:15.674Z,108223.88
2023-05-19T09:37:43.372Z,109121.84
2023-05-19T09:40:11.358Z,107985.97
2023-05-19T09:42:40.865Z,108305.28
2023-05-19T09:45:08.847Z,107726.00
2023-05-19T09:47:39.613Z,108179.19
2023-05-19T09:50:07.679Z,108466.28
2023-05-19T09:52:44.618Z,108491.75
2023-05-19T09:55:13.497Z,108467.31
2023-05-19T09:57:40.410Z,108539.88
2023-05-19T10:00:11.591Z,108346.66
2023-05-19T10:02:42.615Z,108925.59
2023-05-19T10:05:18.075Z,109009.31
2023-05-19T10:07:44.768Z,108561.78
2023-05-19T10:10:13.026Z,108404.34
2023-05-19T10:12:40.815Z,109229.22
2023-05-19T10:15:12.471Z,109484.00
2023-05-19T10:17:40.495Z,108504.44
2023-05-19T10:20:12.161Z,107545.72
2023-05-19T10:22:40.365Z,108333.66
2023-05-19T10:25:08.308Z,108382.69
2023-05-19T10:27:37.711Z,108212.34
2023-05-19T10:30:16.469Z,108226.81
2023-05-19T10:32:46.910Z,108233.91
2023-05-19T10:36:07.507Z,107836.63
2023-05-19T10:38:48.953Z,107205.44
2023-05-19T10:41:42.376Z,107556.06
2023-05-19T10:44:41.048Z,107205.88
2023-05-19T10:47:08.098Z,107263.81
2023-05-19T10:49:36.347Z,107169.47
2023-05-19T10:52:03.969Z,107553.97
2023-05-19T10:54:41.289Z,107783.97
2023-05-19T10:57:08.314Z,107646.31
2023-05-19T10:59:36.642Z,107033.22
2023-05-19T11:02:04.410Z,107239.50
2023-05-19T11:04:45.535Z,106556.13
2023-05-19T11:07:17.519Z,106767.06
2023-05-19T11:09:44.227Z,106220.03
2023-05-19T11:12:10.925Z,106849.03
2023-05-19T11:14:37.789Z,107030.06
2023-05-19T11:17:04.593Z,107122.88
2023-05-19T11:19:35.432Z,107297.84
2023-05-19T11:22:13.327Z,107470.16
2023-05-19T11:24:47.007Z,107357.81
2023-05-19T11:27:19.496Z,107444.41
2023-05-19T11:29:48.148Z,107330.19
2023-05-19T11:32:15.333Z,107373.84
2023-05-19T11:34:41.842Z,107539.34
2023-05-19T11:37:08.573Z,107440.81
2023-05-19T11:39:35.348Z,107237.47
2023-05-19T11:42:02.529Z,106947.28
2023-05-19T11:44:29.035Z,107414.19
2023-05-19T11:46:55.977Z,107175.66
2023-05-19T11:49:22.976Z,106748.03
2023-05-19T11:51:49.746Z,106900.94
2023-05-19T11:54:16.350Z,106636.88
2023-05-19T11:56:43.427Z,107197.66
2023-05-19T11:59:10.168Z,107052.16
2023-05-19T12:01:36.835Z,106710.09
2023-05-19T12:04:08.867Z,107103.56
2023-05-19T12:06:35.440Z,107052.03
2023-05-19T12:09:02.436Z,107384.56
2023-05-19T12:11:29.194Z,107456.13
2023-05-19T12:13:58.955Z,107602.69
2023-05-19T12:16:33.568Z,107402.47
2023-05-19T12:19:00.267Z,107023.59
2023-05-19T12:21:34.253Z,107474.28
2023-05-19T12:24:01.794Z,107367.91
2023-05-19T12:26:28.420Z,107443.63
2023-05-19T12:28:55.153Z,107330.94
2023-05-19T12:31:21.944Z,107270.19
2023-05-19T12:33:49.336Z,107470.22
2023-05-19T12:36:16.062Z,107473.38
2023-05-19T12:38:43.382Z,107710.81
2023-05-19T12:41:13.332Z,107438.03
2023-05-19T12:43:41.030Z,107241.63
2023-05-19T12:46:11.557Z,107503.38
2023-05-19T12:48:45.543Z,107704.66
2023-05-19T12:51:19.326Z,107675.94
2023-05-19T12:53:46.645Z,107537.84
2023-05-19T12:56:15.146Z,107713.47
2023-05-19T12:58:42.568Z,107882.06
2023-05-19T13:01:19.275Z,107853.44
2023-05-19T13:03:46.147Z,107983.47
2023-05-19T13:06:12.876Z,107975.81
2023-05-19T13:08:39.540Z,108121.13
2023-05-19T13:11:06.950Z,108537.13
2023-05-19T13:13:34.373Z,108752.69
2023-05-19T13:16:01.000Z,108648.75
2023-05-19T13:18:27.639Z,108653.84
2023-05-19T13:20:54.206Z,108497.56
2023-05-19T13:23:21.665Z,108486.81
2023-05-19T13:25:49.711Z,108653.59
2023-05-19T13:28:16.281Z,108247.13
2023-05-19T13:30:43.767Z,108768.00
2023-05-19T13:33:10.467Z,109073.72
2023-05-19T13:35:37.949Z,108944.91
2023-05-19T13:38:08.733Z,109132.16
2023-05-19T13:40:35.844Z,109077.44
2023-05-19T13:43:05.154Z,108885.72
2023-05-19T13:45:32.527Z,108507.09
2023-05-19T13:47:59.175Z,108853.78
2023-05-19T13:50:25.880Z,108894.25
2023-05-19T13:52:52.668Z,108419.63
2023-05-19T13:55:19.691Z,107965.00
2023-05-19T13:57:46.541Z,108719.13
2023-05-19T14:00:13.634Z,108947.75
2023-05-19T14:02:40.404Z,109154.25
2023-05-19T14:05:07.438Z,108613.97
2023-05-19T14:07:35.183Z,109371.53
2023-05-19T14:10:03.316Z,108665.00
2023-05-19T14:12:38.070Z,109084.41
2023-05-19T14:15:11.542Z,108070.59
2023-05-19T14:17:38.274Z,108424.56
2023-05-19T14:20:06.079Z,108939.09
2023-05-19T14:22:32.933Z,109003.97
2023-05-19T14:24:59.831Z,108531.78
2023-05-19T14:27:27.118Z,108778.41
2023-05-19T14:29:54.040Z,109071.09
2023-05-19T14:32:20.873Z,108635.34
2023-05-19T14:34:48.274Z,108710.84
2023-05-19T14:37:14.781Z,107508.69
2023-05-19T14:39:41.292Z,108117.50
2023-05-19T14:42:07.817Z,108550.00
2023-05-19T14:44:34.568Z,108749.09
2023-05-19T14:47:05.378Z,108674.81
2023-05-19T14:49:32.029Z,108165.94
2023-05-19T14:51:58.791Z,108230.28
2023-05-19T14:54:25.593Z,108425.63
2023-05-19T14:56:53.106Z,108191.44
2023-05-19T14:59:19.631Z,108041.16
2023-05-19T15:01:46.514Z,108140.38
2023-05-19T15:04:14.069Z,108127.50
2023-05-19T15:06:40.854Z,107996.25
2023-05-19T15:09:07.403Z,107588.34
2023-05-19T15:11:34.151Z,108312.34
2023-05-19T15:14:01.097Z,108364.63
2023-05-19T15:16:27.645Z,108280.94
2023-05-19T15:18:54.362Z,108482.75
2023-05-19T15:21:21.245Z,107952.88
2023-05-19T15:23:48.067Z,108070.97
2023-05-19T15:26:14.707Z,107865.91
2023-05-19T15:28:41.869Z,107433.88
2023-05-19T15:31:09.154Z,107326.31
2023-05-19T15:33:36.068Z,107780.53
2023-05-19T15:36:03.015Z,108377.34
2023-05-19T15:38:30.085Z,107987.59
2023-05-19T15:40:57.243Z,108134.59
2023-05-19T15:43:24.541Z,108059.06
2023-05-19T15:45:51.409Z,108254.47
2023-05-19T15:48:18.108Z,108413.47
2023-05-19T15:50:46.358Z,108379.13
2023-05-19T15:53:13.338Z,108082.81
2023-05-19T15:55:39.855Z,108300.16
2023-05-19T15:58:07.032Z,108679.88
2023-05-19T16:00:33.928Z,108237.91
2023-05-19T16:03:00.855Z,107541.44
2023-05-19T16:05:27.721Z,108065.25
2023-05-19T16:07:54.386Z,108226.31
2023-05-19T16:10:21.366Z,107787.03
2023-05-19T16:12:48.329Z,107938.88
2023-05-19T16:15:14.870Z,108337.19
2023-05-19T16:17:41.531Z,107638.69
2023-05-19T16:20:08.824Z,107904.41
2023-05-19T16:22:35.633Z,107703.06
2023-05-19T16:25:02.463Z,107518.09
2023-05-19T16:27:28.976Z,107560.69
2023-05-19T16:29:55.774Z,107427.25
2023-05-19T16:32:23.573Z,107351.13
2023-05-19T16:34:50.461Z,107315.41
2023-05-19T16:37:16.991Z,106814.53
2023-05-19T16:39:43.911Z,107029.94
2023-05-19T16:42:10.634Z,107380.22
2023-05-19T16:44:37.722Z,107310.66
2023-05-19T16:47:04.534Z,107369.91
2023-05-19T16:49:31.265Z,107098.84
2023-05-19T16:51:57.898Z,106908.94
2023-05-19T16:54:24.704Z,107202.38
2023-05-19T16:56:52.716Z,107256.28
2023-05-19T16:59:19.670Z,107202.28
2023-05-19T17:01:47.079Z,107310.84
2023-05-19T17:04:13.757Z,107437.47
2023-05-19T17:06:40.221Z,107296.19
2023-05-19T17:09:07.077Z,107287.06
2023-05-19T17:11:33.969Z,107369.50
2023-05-19T17:14:00.765Z,107347.81
2023-05-19T17:16:28.520Z,107361.84
2023-05-19T17:18:55.460Z,107282.31
2023-05-19T17:21:22.155Z,107104.47
2023-05-19T17:23:48.691Z,107191.53
2023-05-19T17:26:15.488Z,107260.44
2023-05-19T17:28:42.115Z,106996.84
2023-05-19T17:31:12.602Z,106753.66
2023-05-19T17:33:39.803Z,106986.53
2023-05-19T17:36:07.639Z,106990.75
2023-05-19T17:38:35.787Z,106961.41
2023-05-19T17:41:03.117Z,106797.28
2023-05-19T17:43:30.189Z,106747.59
2023-05-19T17:45:58.684Z,106846.72
2023-05-19T17:48:26.079Z,106787.38
2023-05-19T17:50:52.649Z,106894.28
2023-05-19T17:53:19.881Z,106722.41
2023-05-19T17:55:51.258Z,106699.06
2023-05-19T17:58:19.371Z,106692.19
2023-05-19T18:00:46.892Z,106629.38
2023-05-19T18:03:13.995Z,106603.41
2023-05-19T18:05:40.766Z,106653.53
2023-05-19T18:08:08.121Z,106687.84
2023-05-19T18:10:37.942Z,106603.75
2023-05-19T18:13:05.860Z,106563.50
2023-05-19T18:15:32.876Z,106530.88
2023-05-19T18:17:59.878Z,106453.31
2023-05-19T18:20:26.946Z,106302.16
2023-05-19T18:22:53.703Z,106284.00
2023-05-19T18:25:20.189Z,106171.97
2023-05-19T18:27:46.765Z,106306.34
2023-05-19T18:30:13.515Z,106150.84
2023-05-19T18:32:40.358Z,106242.97
2023-05-19T18:35:08.334Z,106168.41
2023-05-19T18:37:35.407Z,106067.66
2023-05-19T18:40:01.987Z,105953.09
2023-05-19T18:42:28.721Z,105993.41
2023-05-19T18:44:55.255Z,105888.69
2023-05-19T18:47:21.905Z,105787.75
2023-05-19T18:49:48.961Z,105862.25
2023-05-19T18:52:15.933Z,105848.22
2023-05-19T18:54:42.691Z,105664.88
2023-05-19T18:57:09.254Z,105713.31
2023-05-19T18:59:35.860Z,105581.50
2023-05-19T19:02:04.826Z,105668.94
2023-05-19T19:04:31.689Z,105653.47
2023-05-19T19:06:58.503Z,105623.00
2023-05-19T19:09:25.107Z,105495.59
2023-05-19T19:11:52.785Z,105535.84
2023-05-19T19:14:19.341Z,105566.72
2023-05-19T19:16:45.958Z,105534.09
2023-05-19T19:19:12.773Z,105446.16
2023-05-19T19:21:39.526Z,105451.38
2023-05-19T19:24:07.111Z,105391.03
2023-05-19T19:26:33.719Z,105314.13
2023-05-19T19:29:00.794Z,105430.34
2023-05-19T19:31:27.488Z,105360.66
2023-05-19T19:33:54.913Z,105362.47
2023-05-19T19:36:21.435Z,105479.13
2023-05-19T19:38:48.065Z,105610.06
2023-05-19T19:41:14.598Z,105489.19
2023-05-19T19:43:41.343Z,105428.69
2023-05-19T19:46:08.622Z,105476.91
2023-05-19T19:48:35.726Z,105490.81
2023-05-19T19:51:02.594Z,105467.72
2023-05-19T19:53:29.195Z,105290.75
2023-05-19T19:55:57.601Z,105201.44
2023-05-19T19:58:24.605Z,105159.38
2023-05-19T20:01:04.514Z,105097.59
2023-05-19T20:03:31.314Z,104907.03
2023-05-19T20:05:57.847Z,104958.69
2023-05-19T20:08:25.977Z,105034.84
2023-05-19T20:10:53.297Z,105032.72
2023-05-19T20:13:20.101Z,104869.34
2023-05-19T20:15:47.701Z,104801.16
2023-05-19T20:18:14.351Z,104723.22
2023-05-19T20:20:41.616Z,104765.69
2023-05-19T20:23:08.695Z,104662.44
2023-05-19T20:25:38.360Z,104545.91
2023-05-19T20:28:05.035Z,104383.09
2023-05-19T20:30:31.986Z,104449.72
2023-05-19T20:32:58.657Z,104438.22
2023-05-19T20:35:25.432Z,104746.66
2023-05-19T20:37:52.775Z,104784.66
2023-05-19T20:40:19.419Z,104719.91
2023-05-19T20:42:45.927Z,104628.38
2023-05-19T20:45:12.731Z,104723.66
2023-05-19T20:47:39.282Z,104667.56
2023-05-19T20:50:06.682Z,104693.50
2023-05-19T20:52:33.258Z,104665.06
2023-05-19T20:54:59.715Z,104522.84
2023-05-19T20:57:28.713Z,104529.91
2023-05-19T20:59:55.455Z,104439.22
2023-05-19T21:02:22.030Z,104441.59
2023-05-19T21:04:48.517Z,104397.31
2023-05-19T21:07:15.288Z,104529.06
2023-05-19T21:09:42.539Z,104349.66
2023-05-19T21:12:09.372Z,104371.16
2023-05-19T21:14:36.142Z,104689.97
2023-05-19T21:17:03.112Z,104709.00
2023-05-19T21:19:29.725Z,104580.25
2023-05-19T21:21:56.382Z,104534.66
2023-05-19T21:24:23.495Z,104603.81
2023-05-19T21:26:50.377Z,104566.00
2023-05-19T21:29:16.901Z,104616.13
2023-05-19T21:31:43.620Z,104530.28
2023-05-19T21:34:10.640Z,104533.91
2023-05-19T21:36:37.284Z,104447.66
2023-05-19T21:39:04.695Z,104482.78
2023-05-19T21:41:31.646Z,104527.78
2023-05-19T21:43:58.377Z,104491.25
2023-05-19T21:46:25.338Z,104485.59
2023-05-19T21:48:51.953Z,104556.91
2023-05-19T21:51:18.564Z,104532.81
2023-05-19T21:53:45.154Z,104521.16
2023-05-19T21:56:12.561Z,104549.03
2023-05-19T21:58:39.593Z,104515.78
2023-05-19T22:01:06.147Z,104559.94
2023-05-19T22:03:33.583Z,104498.09
2023-05-19T22:06:00.826Z,104533.34
2023-05-19T22:08:28.093Z,104520.03
2023-05-19T22:10:54.641Z,104488.25
2023-05-19T22:13:21.243Z,104548.56
2023-05-19T22:15:48.921Z,104462.50
2023-05-19T22:18:15.631Z,104519.75
2023-05-19T22:20:42.751Z,104542.44
2023-05-19T22:23:09.495Z,104508.13
2023-05-19T22:25:36.438Z,104543.09
2023-05-19T22:28:03.053Z,104519.00
2023-05-19T22:30:30.070Z,104511.94
2023-05-19T22:32:57.337Z,104533.78
2023-05-19T22:35:24.348Z,104468.88
2023-05-19T22:37:50.858Z,104533.25
2023-05-19T22:40:17.704Z,104576.75
2023-05-19T22:42:44.256Z,104621.13
2023-05-19T22:45:11.361Z,104670.50
2023-05-19T22:47:38.746Z,104617.59
2023-05-19T22:50:06.308Z,104629.78
2023-05-19T22:52:32.902Z,104638.72
2023-05-19T22:55:00.374Z,104655.31
2023-05-19T22:57:27.224Z,104633.41
2023-05-19T22:59:54.288Z,104637.59
2023-05-19T23:02:21.372Z,104642.69
2023-05-19T23:04:48.347Z,104675.38
2023-05-19T23:07:15.215Z,104766.84
2023-05-19T23:09:42.241Z,104797.31
2023-05-19T23:12:09.035Z,104757.31
2023-05-19T23:14:35.524Z,104725.47
2023-05-19T23:17:04.133Z,104813.91
2023-05-19T23:19:31.127Z,104852.94
2023-05-19T23:21:57.693Z,104817.94
2023-05-19T23:24:24.332Z,104812.38
2023-05-19T23:26:50.965Z,104858.25
2023-05-19T23:29:17.506Z,104840.63
2023-05-19T23:31:44.787Z,104833.00
2023-05-19T23:34:11.595Z,104908.13
2023-05-19T23:36:38.472Z,104925.47
2023-05-19T23:39:04.994Z,104927.59
2023-05-19T23:41:31.800Z,104869.50
2023-05-19T23:43:59.588Z,104822.41
2023-05-19T23:46:26.519Z,104912.56
2023-05-19T23:48:53.410Z,104922.69
2023-05-19T23:51:19.915Z,104927.22
2023-05-19T23:53:46.440Z,104900.53
2023-05-19T23:56:13.209Z,104892.63
2023-05-19T23:58:39.922Z,104933.56
